Time;durP1;ratioP1;P1;durP2;ratioP2;P2;SDS_P1;SDS_P2;PMS_P1;PMS_P2;Temp;Humidity;BMP_temperature;BMP_pressure;BME280_temperature;BME280_humidity;BME280_pressure;Samples;Min_cycle;Max_cycle;Signal;HPM_P1;HPM_P2
2021/03/03 00:00:06;;;;;;;;;;;;;;;;;;4996048;28;19925;-76
2021/03/03 00:02:31;;;;;;;;;;;;;;;;;;5000180;28;20271;-76
2021/03/03 00:04:57;;;;;;;;;;;;;;;;;;5003633;28;19936;-76
2021/03/03 00:07:23;;;;;;;;;;;;;;;;;;4995844;28;20393;-76
2021/03/03 00:09:49;;;;;;;;;;;;;;;;;;4998331;28;19975;-76
2021/03/03 00:12:15;;;;;;;;;;;;;;;;;;5001121;28;19925;-76
2021/03/03 00:14:41;;;;;;;;;;;;;;;;;;4993168;28;19934;-76
2021/03/03 00:17:07;;;;;;;;;;;;;;;;;;4984074;28;19926;-75
2021/03/03 00:19:33;;;;;;;;;;;;;;;;;;4980622;28;19975;-76
2021/03/03 00:21:59;;;;;;;;;;;;;;;;;;4990709;28;19926;-75
2021/03/03 00:24:25;;;;;;;;;;;;;;;;;;4994809;28;19940;-76
2021/03/03 00:26:50;;;;;;;;;;;;;;;;;;5015456;28;19947;-75
2021/03/03 00:29:16;;;;;;;;;;;;;;;;;;5013140;28;19926;-77
2021/03/03 00:31:42;;;;;;;;;;;;;;;;;;4996752;28;19925;-75
2021/03/03 00:34:08;;;;;;;;;;;;;;;;;;5005519;28;19933;-75
2021/03/03 00:36:34;;;;;;;;;;;;;;;;;;5001864;28;19926;-76
2021/03/03 00:39:00;;;;;;;;;;;;;;;;;;5002672;28;19930;-75
2021/03/03 00:41:26;;;;;;;;;;;;;;;;;;4992630;28;19979;-77
2021/03/03 00:43:52;;;;;;;;;;;;;;;;;;5004377;28;19933;-76
2021/03/03 00:46:18;;;;;;;;;;;;;;;;;;5012793;28;19928;-77
2021/03/03 00:48:43;;;;;;;;;;;;;;;;;;5088862;28;20313;-76
2021/03/03 00:51:09;;;;;;;;;;;;;;;;;;5090893;28;19950;-76
2021/03/03 00:53:35;;;;;;;;;;;;;;;;;;5087747;28;19988;-76
2021/03/03 00:56:01;;;;;;;;;;;;;;;;;;5048325;28;19933;-77
2021/03/03 00:58:27;;;;;;;;;;;;;;;;;;5005230;28;19944;-75
2021/03/03 01:00:53;;;;;;;;;;;;;;;;;;4997725;28;19934;-77
2021/03/03 01:03:19;;;;;;;;;;;;;;;;;;4986688;28;20345;-76
2021/03/03 01:05:45;;;;;;;;;;;;;;;;;;4985949;28;19979;-76
2021/03/03 01:08:11;;;;;;;;;;;;;;;;;;5009612;28;20301;-77
2021/03/03 01:10:37;;;;;;;;;;;;;;;;;;5022996;28;19925;-77
2021/03/03 01:13:03;;;;;;;;;;;;;;;;;;5000797;28;19929;-76
2021/03/03 01:15:28;;;;;;;;;;;;;;;;;;4997993;28;19926;-76
2021/03/03 01:18:00;;;;;;;;;;;;;;;;;;5003981;28;19926;-77
2021/03/03 01:20:25;;;;;;;;;;;;;;;;;;5003565;28;19926;-76
2021/03/03 01:22:51;;;;;;;;;;;;;;;;;;5005089;28;19929;-76
2021/03/03 01:25:17;;;;;;;;;;;;;;;;;;5005047;28;19930;-76
2021/03/03 01:27:43;;;;;;;;;;;;;;;;;;4989905;28;19977;-76
2021/03/03 01:30:09;;;;;;;;;;;;;;;;;;5005702;28;20435;-76
2021/03/03 01:32:35;;;;;;;;;;;;;;;;;;4995152;28;19929;-76
2021/03/03 01:35:01;;;;;;;;;;;;;;;;;;5005666;28;19930;-76
2021/03/03 01:37:27;;;;;;;;;;;;;;;;;;5002942;28;20286;-76
2021/03/03 01:39:53;;;;;;;;;;;;;;;;;;5004907;28;19932;-76
2021/03/03 01:42:19;;;;;;;;;;;;;;;;;;5004913;28;19925;-76
2021/03/03 01:44:45;;;;;;;;;;;;;;;;;;4986889;28;19926;-76
2021/03/03 01:47:11;;;;;;;;;;;;;;;;;;4998307;28;19978;-77
2021/03/03 01:49:37;;;;;;;;;;;;;;;;;;5002226;28;19932;-77
2021/03/03 01:52:03;;;;;;;;;;;;;;;;;;5005617;28;19933;-77
2021/03/03 01:54:29;;;;;;;;;;;;;;;;;;5002600;28;19926;-77
2021/03/03 01:56:55;;;;;;;;;;;;;;;;;;5005006;28;19925;-77
2021/03/03 01:59:20;;;;;;;;;;;;;;;;;;4994002;28;19974;-76
2021/03/03 02:01:46;;;;;;;;;;;;;;;;;;4995986;28;19934;-77
2021/03/03 02:04:12;;;;;;;;;;;;;;;;;;5005150;28;19933;-77
2021/03/03 02:06:38;;;;;;;;;;;;;;;;;;5002238;28;19978;-77
2021/03/03 02:09:04;;;;;;;;;;;;;;;;;;5005033;28;20325;-78
2021/03/03 02:11:30;;;;;;;;;;;;;;;;;;5001294;28;19925;-76
2021/03/03 02:13:56;;;;;;;;;;;;;;;;;;4986036;28;20297;-77
2021/03/03 02:16:22;;;;;;;;;;;;;;;;;;5000398;28;19926;-77
2021/03/03 02:18:48;;;;;;;;;;;;;;;;;;4999100;28;20430;-77
2021/03/03 02:21:14;;;;;;;;;;;;;;;;;;5004645;28;19926;-76
2021/03/03 02:23:40;;;;;;;;;;;;;;;;;;5002042;28;19925;-76
2021/03/03 02:26:06;;;;;;;;;;;;;;;;;;5001441;28;19986;-77
2021/03/03 02:28:31;;;;;;;;;;;;;;;;;;4986676;28;19926;-77
2021/03/03 02:30:57;;;;;;;;;;;;;;;;;;4986711;28;19973;-76
2021/03/03 02:33:23;;;;;;;;;;;;;;;;;;4978369;28;20290;-76
2021/03/03 02:35:49;;;;;;;;;;;;;;;;;;4983775;28;19926;-77
2021/03/03 02:38:15;;;;;;;;;;;;;;;;;;4984531;28;19933;-76
2021/03/03 02:40:41;;;;;;;;;;;;;;;;;;4982286;28;19926;-77
2021/03/03 02:43:07;;;;;;;;;;;;;;;;;;4985047;28;19933;-77
2021/03/03 02:45:33;;;;;;;;;;;;;;;;;;4991467;28;19930;-77
2021/03/03 02:47:59;;;;;;;;;;;;;;;;;;4997123;28;19932;-76
2021/03/03 02:50:25;;;;;;;;;;;;;;;;;;5002184;28;19930;-76
2021/03/03 02:52:50;;;;;;;;;;;;;;;;;;5003061;28;19975;-77
2021/03/03 02:55:16;;;;;;;;;;;;;;;;;;5004138;28;19936;-76
2021/03/03 02:57:42;;;;;;;;;;;;;;;;;;5001716;28;20286;-77
2021/03/03 03:00:08;;;;;;;;;;;;;;;;;;4989625;28;19933;-77
2021/03/03 03:02:34;;;;;;;;;;;;;;;;;;4982314;28;20428;-76
2021/03/03 03:05:00;;;;;;;;;;;;;;;;;;4992478;28;19929;-75
2021/03/03 03:07:26;;;;;;;;;;;;;;;;;;5001343;28;19933;-75
2021/03/03 03:09:52;;;;;;;;;;;;;;;;;;5003732;28;20275;-77
2021/03/03 03:12:18;;;;;;;;;;;;;;;;;;5002976;28;19932;-77
2021/03/03 03:14:47;;;;;;;;;;;;;;;;;;4982240;28;19944;-76
2021/03/03 03:17:13;;;;;;;;;;;;;;;;;;5003963;28;19926;-76
2021/03/03 03:19:39;;;;;;;;;;;;;;;;;;4993956;28;19940;-76
2021/03/03 03:22:04;;;;;;;;;;;;;;;;;;5004205;28;20344;-76
2021/03/03 03:24:30;;;;;;;;;;;;;;;;;;5001305;28;19925;-77
2021/03/03 03:26:56;;;;;;;;;;;;;;;;;;4990221;28;20291;-77
2021/03/03 03:29:22;;;;;;;;;;;;;;;;;;4985408;28;20267;-76
2021/03/03 03:31:48;;;;;;;;;;;;;;;;;;4976231;28;19930;-77
2021/03/03 03:34:14;;;;;;;;;;;;;;;;;;4983380;28;19933;-77
2021/03/03 03:36:40;;;;;;;;;;;;;;;;;;4992553;28;19925;-76
2021/03/03 03:39:06;;;;;;;;;;;;;;;;;;5018988;28;19925;-77
2021/03/03 03:41:32;;;;;;;;;;;;;;;;;;5023683;28;19974;-78
2021/03/03 03:43:57;;;;;;;;;;;;;;;;;;5005824;28;19932;-77
2021/03/03 03:46:23;;;;;;;;;;;;;;;;;;4995224;28;19925;-76
2021/03/03 03:48:49;;;;;;;;;;;;;;;;;;5001775;28;20341;-76
2021/03/03 03:51:15;;;;;;;;;;;;;;;;;;4991444;28;20408;-76
2021/03/03 03:53:41;;;;;;;;;;;;;;;;;;4982865;28;19926;-76
2021/03/03 03:56:07;;;;;;;;;;;;;;;;;;4982750;28;19926;-76
2021/03/03 03:58:33;;;;;;;;;;;;;;;;;;4985183;28;20400;-77
2021/03/03 04:00:59;;;;;;;;;;;;;;;;;;4973943;28;19933;-76
2021/03/03 04:03:25;;;;;;;;;;;;;;;;;;4984010;28;20382;-77
2021/03/03 04:05:51;;;;;;;;;;;;;;;;;;4977179;28;19972;-75
2021/03/03 04:08:17;;;;;;;;;;;;;;;;;;5002334;28;19925;-76
2021/03/03 04:10:43;;;;;;;;;;;;;;;;;;5002234;28;19925;-75
2021/03/03 04:13:09;;;;;;;;;;;;;;;;;;5000874;28;19930;-75
2021/03/03 04:15:35;;;;;;;;;;;;;;;;;;4983802;28;19926;-75
2021/03/03 04:18:01;;;;;;;;;;;;;;;;;;4992873;28;19978;-76
2021/03/03 04:20:27;;;;;;;;;;;;;;;;;;5007627;28;20271;-76
2021/03/03 04:22:53;;;;;;;;;;;;;;;;;;4997261;28;20003;-75
2021/03/03 04:25:18;;;;;;;;;;;;;;;;;;5007911;28;19933;-75
2021/03/03 04:27:44;;;;;;;;;;;;;;;;;;5006217;28;20370;-75
2021/03/03 04:30:10;;;;;;;;;;;;;;;;;;5005874;28;19953;-76
2021/03/03 04:32:36;;;;;;;;;;;;;;;;;;4991473;28;19930;-75
2021/03/03 04:35:02;;;;;;;;;;;;;;;;;;4984808;28;19929;-76
2021/03/03 04:37:28;;;;;;;;;;;;;;;;;;4983057;28;19929;-76
2021/03/03 04:39:54;;;;;;;;;;;;;;;;;;4984248;28;19925;-75
2021/03/03 04:42:19;;;;;;;;;;;;;;;;;;5003414;28;19925;-75
2021/03/03 04:44:45;;;;;;;;;;;;;;;;;;5004601;28;19926;-76
2021/03/03 04:47:11;;;;;;;;;;;;;;;;;;4995621;28;19933;-76
2021/03/03 04:49:37;;;;;;;;;;;;;;;;;;5005797;28;19978;-76
2021/03/03 04:52:03;;;;;;;;;;;;;;;;;;5003929;28;19932;-76
2021/03/03 04:54:29;;;;;;;;;;;;;;;;;;4998840;28;20336;-76
2021/03/03 04:56:55;;;;;;;;;;;;;;;;;;5003370;28;19930;-77
2021/03/03 04:59:21;;;;;;;;;;;;;;;;;;5002984;28;19934;-76
2021/03/03 05:01:47;;;;;;;;;;;;;;;;;;5005222;28;19926;-76
2021/03/03 05:04:13;;;;;;;;;;;;;;;;;;4987332;28;19929;-75
2021/03/03 05:06:38;;;;;;;;;;;;;;;;;;5005667;28;19979;-77
2021/03/03 05:09:04;;;;;;;;;;;;;;;;;;4983560;28;19933;-76
2021/03/03 05:11:30;;;;;;;;;;;;;;;;;;4985087;28;19930;-77
2021/03/03 05:13:56;;;;;;;;;;;;;;;;;;4986530;28;19979;-76
2021/03/03 05:16:22;;;;;;;;;;;;;;;;;;4983265;28;20367;-76
2021/03/03 05:18:48;;;;;;;;;;;;;;;;;;4983052;28;19930;-76
2021/03/03 05:21:14;;;;;;;;;;;;;;;;;;5002645;28;19970;-77
2021/03/03 05:23:40;;;;;;;;;;;;;;;;;;5005871;28;19933;-76
2021/03/03 05:26:06;;;;;;;;;;;;;;;;;;4996534;28;19932;-77
2021/03/03 05:28:32;;;;;;;;;;;;;;;;;;4995967;28;20345;-76
2021/03/03 05:30:58;;;;;;;;;;;;;;;;;;4986073;28;19953;-76
2021/03/03 05:33:24;;;;;;;;;;;;;;;;;;4983751;28;20666;-76
2021/03/03 05:35:50;;;;;;;;;;;;;;;;;;4980068;28;20310;-76
2021/03/03 05:38:16;;;;;;;;;;;;;;;;;;4983475;28;19933;-76
2021/03/03 05:40:42;;;;;;;;;;;;;;;;;;4985582;28;20291;-77
2021/03/03 05:43:08;;;;;;;;;;;;;;;;;;4984645;28;20336;-77
2021/03/03 05:45:34;;;;;;;;;;;;;;;;;;4985032;28;19926;-76
2021/03/03 05:48:00;;;;;;;;;;;;;;;;;;4985501;28;19926;-76
2021/03/03 05:50:26;;;;;;;;;;;;;;;;;;4976308;28;19925;-77
2021/03/03 05:52:52;;;;;;;;;;;;;;;;;;4985888;28;20255;-76
2021/03/03 05:55:18;;;;;;;;;;;;;;;;;;4977472;28;19937;-78
2021/03/03 05:57:44;;;;;;;;;;;;;;;;;;4986006;28;19926;-76
2021/03/03 06:00:10;;;;;;;;;;;;;;;;;;4983408;28;20398;-76
2021/03/03 06:02:36;;;;;;;;;;;;;;;;;;4984984;28;19987;-76
2021/03/03 06:05:02;;;;;;;;;;;;;;;;;;4982480;28;19948;-77
2021/03/03 06:07:28;;;;;;;;;;;;;;;;;;4996955;28;20426;-76
2021/03/03 06:09:53;;;;;;;;;;;;;;;;;;5005129;28;20378;-76
2021/03/03 06:12:19;;;;;;;;;;;;;;;;;;4993929;28;20341;-76
2021/03/03 06:14:45;;;;;;;;;;;;;;;;;;5000690;28;19926;-76
2021/03/03 06:17:11;;;;;;;;;;;;;;;;;;4982849;28;19979;-76
2021/03/03 06:19:37;;;;;;;;;;;;;;;;;;4984929;28;19926;-76
2021/03/03 06:22:03;;;;;;;;;;;;;;;;;;4991347;28;19932;-75
2021/03/03 06:24:29;;;;;;;;;;;;;;;;;;5003134;28;20327;-75
2021/03/03 06:26:55;;;;;;;;;;;;;;;;;;4992610;28;19933;-76
2021/03/03 06:29:20;;;;;;;;;;;;;;;;;;4982091;28;19933;-75
2021/03/03 06:31:46;;;;;;;;;;;;;;;;;;4985661;28;19933;-76
2021/03/03 06:34:12;;;;;;;;;;;;;;;;;;4982798;28;19926;-76
2021/03/03 06:36:38;;;;;;;;;;;;;;;;;;4981218;28;20601;-75
2021/03/03 06:39:04;;;;;;;;;;;;;;;;;;5008782;28;19956;-76
2021/03/03 06:41:30;;;;;;;;;;;;;;;;;;5014591;28;19926;-76
2021/03/03 06:43:56;;;;;;;;;;;;;;;;;;5009109;28;20012;-76
2021/03/03 06:46:22;;;;;;;;;;;;;;;;;;5011463;28;19933;-75
2021/03/03 06:48:48;;;;;;;;;;;;;;;;;;5008589;28;19929;-75
2021/03/03 06:51:14;;;;;;;;;;;;;;;;;;5005519;28;20447;-76
2021/03/03 06:53:40;;;;;;;;;;;;;;;;;;4987353;28;19926;-75
2021/03/03 06:56:06;;;;;;;;;;;;;;;;;;4984746;28;20389;-76
2021/03/03 06:58:31;;;;;;;;;;;;;;;;;;4980460;28;19933;-75
2021/03/03 07:00:58;;;;;;;;;;;;;;;;;;4986084;28;20298;-75
2021/03/03 07:03:24;;;;;;;;;;;;;;;;;;4983915;28;20024;-75
2021/03/03 07:05:50;;;;;;;;;;;;;;;;;;4986722;28;19925;-76
2021/03/03 07:08:16;;;;;;;;;;;;;;;;;;4978928;28;19929;-76
2021/03/03 07:10:42;;;;;;;;;;;;;;;;;;5009114;28;19970;-76
2021/03/03 07:13:07;;;;;;;;;;;;;;;;;;4985461;28;19926;-76
2021/03/03 07:15:34;;;;;;;;;;;;;;;;;;5003098;28;19925;-77
2021/03/03 07:17:59;;;;;;;;;;;;;;;;;;5007256;28;20298;-76
2021/03/03 07:20:25;;;;;;;;;;;;;;;;;;5005390;28;19925;-76
2021/03/03 07:22:51;;;;;;;;;;;;;;;;;;5005631;28;19932;-76
2021/03/03 07:25:17;;;;;;;;;;;;;;;;;;4984115;28;19925;-77
2021/03/03 07:27:43;;;;;;;;;;;;;;;;;;4985067;28;20298;-75
2021/03/03 07:30:09;;;;;;;;;;;;;;;;;;4990677;28;19926;-76
2021/03/03 07:32:35;;;;;;;;;;;;;;;;;;4999560;28;20371;-76
2021/03/03 07:35:01;;;;;;;;;;;;;;;;;;5003383;28;19933;-77
2021/03/03 07:37:27;;;;;;;;;;;;;;;;;;5002309;28;19936;-77
2021/03/03 07:39:52;;;;;;;;;;;;;;;;;;4992791;28;19933;-76
2021/03/03 07:42:18;;;;;;;;;;;;;;;;;;5003633;28;19975;-76
2021/03/03 07:44:44;;;;;;;;;;;;;;;;;;4993230;28;19937;-76
2021/03/03 07:47:10;;;;;;;;;;;;;;;;;;4984609;28;19937;-76
2021/03/03 07:49:36;;;;;;;;;;;;;;;;;;4981008;28;20002;-75
2021/03/03 07:52:02;;;;;;;;;;;;;;;;;;4984201;28;19929;-77
2021/03/03 07:54:28;;;;;;;;;;;;;;;;;;4985881;28;19937;-76
2021/03/03 07:56:54;;;;;;;;;;;;;;;;;;4978891;28;19933;-76
2021/03/03 07:59:20;;;;;;;;;;;;;;;;;;4987404;28;20038;-77
2021/03/03 08:01:45;;;;;;;;;;;;;;;;;;4992519;28;19934;-75
2021/03/03 08:04:11;;;;;;;;;;;;;;;;;;5008231;28;19925;-76
2021/03/03 08:06:37;;;;;;;;;;;;;;;;;;5006419;28;19971;-76
2021/03/03 08:09:03;;;;;;;;;;;;;;;;;;5007546;28;19949;-76
2021/03/03 08:11:29;;;;;;;;;;;;;;;;;;4995699;28;19933;-76
2021/03/03 08:13:55;;;;;;;;;;;;;;;;;;5005385;28;20385;-77
2021/03/03 08:16:21;;;;;;;;;;;;;;;;;;4993207;28;19925;-77
2021/03/03 08:18:47;;;;;;;;;;;;;;;;;;5004320;28;19925;-77
2021/03/03 08:21:13;;;;;;;;;;;;;;;;;;5022554;28;20389;-76
2021/03/03 08:23:40;;;;;;;;;;;;;;;;;;5003488;28;19926;-76
2021/03/03 08:26:06;;;;;;;;;;;;;;;;;;5007077;28;20267;-77
2021/03/03 08:28:32;;;;;;;;;;;;;;;;;;4984118;28;19926;-77
2021/03/03 08:30:58;;;;;;;;;;;;;;;;;;4984114;28;19965;-77
2021/03/03 08:33:24;;;;;;;;;;;;;;;;;;5005641;28;19933;-77
2021/03/03 08:35:50;;;;;;;;;;;;;;;;;;4997344;28;20350;-77
2021/03/03 08:38:16;;;;;;;;;;;;;;;;;;5013816;28;19931;-77
2021/03/03 08:40:42;;;;;;;;;;;;;;;;;;5022647;28;19925;-77
2021/03/03 08:43:08;;;;;;;;;;;;;;;;;;5009471;28;19979;-78
2021/03/03 08:45:34;;;;;;;;;;;;;;;;;;5003742;28;19925;-77
2021/03/03 08:48:00;;;;;;;;;;;;;;;;;;4998911;28;19933;-77
2021/03/03 08:50:26;;;;;;;;;;;;;;;;;;5004960;28;19926;-76
2021/03/03 08:52:52;;;;;;;;;;;;;;;;;;5002363;28;19933;-77
2021/03/03 08:55:18;;;;;;;;;;;;;;;;;;5002678;28;19929;-77
2021/03/03 08:57:44;;;;;;;;;;;;;;;;;;5002866;28;19934;-76
2021/03/03 09:00:10;;;;;;;;;;;;;;;;;;4996597;28;19975;-77
2021/03/03 09:02:36;;;;;;;;;;;;;;;;;;4995984;28;20339;-78
2021/03/03 09:05:02;;;;;;;;;;;;;;;;;;5005326;28;19936;-77
2021/03/03 09:07:29;;;;;;;;;;;;;;;;;;4996909;28;20397;-75
2021/03/03 09:09:55;;;;;;;;;;;;;;;;;;5006171;28;20380;-80
2021/03/03 09:12:21;;;;;;;;;;;;;;;;;;4990667;28;19933;-74
2021/03/03 09:14:47;;;;;;;;;;;;;;;;;;4991347;28;19951;-74
2021/03/03 09:17:13;;;;;;;;;;;;;;;;;;5013761;28;19931;-74
2021/03/03 09:19:39;;;;;;;;;;;;;;;;;;5001237;28;19982;-73
2021/03/03 09:22:05;;;;;;;;;;;;;;;;;;5008655;28;19925;-73
2021/03/03 09:24:31;;;;;;;;;;;;;;;;;;5003501;28;19933;-74
2021/03/03 09:26:56;;;;;;;;;;;;;;;;;;5009330;28;19976;-74
2021/03/03 09:29:23;;;;;;;;;;;;;;;;;;5020172;28;19929;-73
2021/03/03 09:31:48;;;;;;;;;;;;;;;;;;4983708;28;20301;-72
2021/03/03 09:34:14;;;;;;;;;;;;;;;;;;5016201;28;19923;-73
2021/03/03 09:36:40;;;;;;;;;;;;;;;;;;5006746;28;19925;-74
2021/03/03 09:39:06;;;;;;;;;;;;;;;;;;5005006;28;19926;-73
2021/03/03 09:41:34;;;;;;;;;;;;;;;;;;5003452;28;19932;-73
2021/03/03 09:44:00;;;;;;;;;;;;;;;;;;4996487;28;19960;-73
2021/03/03 09:46:26;;;;;;;;;;;;;;;;;;5019915;28;19977;-73
2021/03/03 09:48:52;;;;;;;;;;;;;;;;;;4990787;28;20036;-72
2021/03/03 09:51:18;;;;;;;;;;;;;;;;;;5009307;28;20023;-74
2021/03/03 09:53:44;;;;;;;;;;;;;;;;;;5002939;28;20302;-73
2021/03/03 09:56:10;;;;;;;;;;;;;;;;;;5001839;28;20290;-74
2021/03/03 09:58:36;;;;;;;;;;;;;;;;;;5001780;28;19926;-74
2021/03/03 10:01:01;;;;;;;;;;;;;;;;;;5000032;28;20791;-70
2021/03/03 10:03:27;;;;;;;;;;;;;;;;;;4987017;28;19925;-74
2021/03/03 10:05:53;;;;;;;;;;;;;;;;;;4980006;28;19934;-73
2021/03/03 10:08:19;;;;;;;;;;;;;;;;;;5001041;28;19953;-74
2021/03/03 10:10:45;;;;;;;;;;;;;;;;;;5002210;28;19925;-76
2021/03/03 10:13:11;;;;;;;;;;;;;;;;;;5045323;28;19923;-75
2021/03/03 10:15:37;;;;;;;;;;;;;;;;;;5000026;28;19926;-73
2021/03/03 10:18:04;;;;;;;;;;;;;;;;;;4984114;28;20352;-74
2021/03/03 10:20:30;;;;;;;;;;;;;;;;;;4991940;28;19926;-74
2021/03/03 10:22:56;;;;;;;;;;;;;;;;;;5002850;28;19956;-75
2021/03/03 10:25:22;;;;;;;;;;;;;;;;;;5031867;28;19931;-74
2021/03/03 10:27:48;;;;;;;;;;;;;;;;;;5003348;28;19926;-74
2021/03/03 10:30:14;;;;;;;;;;;;;;;;;;5002408;28;19926;-74
2021/03/03 10:32:40;;;;;;;;;;;;;;;;;;4996231;28;19925;-76
2021/03/03 10:35:06;;;;;;;;;;;;;;;;;;4994188;28;19986;-75
2021/03/03 10:37:32;;;;;;;;;;;;;;;;;;4984396;28;19979;-75
2021/03/03 10:39:58;;;;;;;;;;;;;;;;;;4988655;28;19936;-75
2021/03/03 10:42:24;;;;;;;;;;;;;;;;;;5005770;28;19976;-75
2021/03/03 10:44:52;;;;;;;;;;;;;;;;;;5001332;28;19930;-73
2021/03/03 10:47:18;;;;;;;;;;;;;;;;;;5042530;28;19930;-74
2021/03/03 10:49:44;;;;;;;;;;;;;;;;;;4990846;28;19926;-72
2021/03/03 10:52:10;;;;;;;;;;;;;;;;;;5008889;28;20390;-74
2021/03/03 10:54:36;;;;;;;;;;;;;;;;;;4996545;28;19933;-73
2021/03/03 10:57:02;;;;;;;;;;;;;;;;;;4996514;28;19936;-74
2021/03/03 10:59:28;;;;;;;;;;;;;;;;;;5003594;28;20383;-74
2021/03/03 11:01:57;;;;;;;;;;;;;;;;;;4997367;28;19933;-73
2021/03/03 11:04:23;;;;;;;;;;;;;;;;;;5019587;28;19948;-74
2021/03/03 11:06:48;;;;;;;;;;;;;;;;;;4994141;28;20368;-73
2021/03/03 11:09:14;;;;;;;;;;;;;;;;;;4993357;28;19925;-74
2021/03/03 11:11:40;;;;;;;;;;;;;;;;;;4999910;28;20361;-75
2021/03/03 11:14:06;;;;;;;;;;;;;;;;;;5003474;28;20345;-74
2021/03/03 11:16:32;;;;;;;;;;;;;;;;;;5000924;28;20357;-73
2021/03/03 11:18:58;;;;;;;;;;;;;;;;;;4986100;28;19927;-74
2021/03/03 11:21:24;;;;;;;;;;;;;;;;;;5001405;28;19934;-74
2021/03/03 11:23:50;;;;;;;;;;;;;;;;;;4992050;28;20340;-75
2021/03/03 11:26:16;;;;;;;;;;;;;;;;;;5001863;28;19925;-75
2021/03/03 11:28:42;;;;;;;;;;;;;;;;;;4996730;28;20354;-74
2021/03/03 11:31:08;;;;;;;;;;;;;;;;;;4992542;28;20435;-74
2021/03/03 11:33:34;;;;;;;;;;;;;;;;;;4981294;28;19926;-74
2021/03/03 11:36:00;;;;;;;;;;;;;;;;;;4999147;28;19933;-73
2021/03/03 11:38:26;;;;;;;;;;;;;;;;;;5005152;28;20294;-73
2021/03/03 11:40:52;;;;;;;;;;;;;;;;;;4988380;28;20439;-74
2021/03/03 11:43:18;;;;;;;;;;;;;;;;;;5003639;28;19933;-74
2021/03/03 11:45:44;;;;;;;;;;;;;;;;;;5000204;28;20388;-73
2021/03/03 11:48:11;;;;;;;;;;;;;;;;;;5002518;28;21426;-76
2021/03/03 11:50:37;;;;;;;;;;;;;;;;;;4988565;28;19926;-73
2021/03/03 11:53:03;;;;;;;;;;;;;;;;;;4999363;28;20275;-72
2021/03/03 11:55:29;;;;;;;;;;;;;;;;;;5003185;28;19929;-74
2021/03/03 11:57:55;;;;;;;;;;;;;;;;;;5000295;28;19930;-74
2021/03/03 12:00:21;;;;;;;;;;;;;;;;;;5003100;28;19929;-73
2021/03/03 12:02:47;;;;;;;;;;;;;;;;;;4999518;28;20347;-74
2021/03/03 12:05:13;;;;;;;;;;;;;;;;;;4985553;28;19926;-73
2021/03/03 12:07:39;;;;;;;;;;;;;;;;;;4982829;28;19929;-73
2021/03/03 12:10:05;;;;;;;;;;;;;;;;;;4983006;28;19926;-73
2021/03/03 12:12:31;;;;;;;;;;;;;;;;;;5043235;28;19924;-73
2021/03/03 12:14:56;;;;;;;;;;;;;;;;;;5104248;28;20470;-73
2021/03/03 12:17:23;;;;;;;;;;;;;;;;;;5106569;28;19931;-72
2021/03/03 12:19:49;;;;;;;;;;;;;;;;;;5034553;28;19932;-72
2021/03/03 12:22:15;;;;;;;;;;;;;;;;;;5003603;28;20343;-73
2021/03/03 12:24:41;;;;;;;;;;;;;;;;;;4995437;28;20370;-73
2021/03/03 12:27:06;;;;;;;;;;;;;;;;;;4988395;28;19934;-72
2021/03/03 12:29:32;;;;;;;;;;;;;;;;;;5005750;28;19926;-72
2021/03/03 12:31:58;;;;;;;;;;;;;;;;;;5000886;28;20230;-72
2021/03/03 12:34:24;;;;;;;;;;;;;;;;;;4993320;28;19933;-72
2021/03/03 12:36:50;;;;;;;;;;;;;;;;;;4999526;28;19925;-72
2021/03/03 12:39:16;;;;;;;;;;;;;;;;;;4998264;28;19945;-72
2021/03/03 12:41:42;;;;;;;;;;;;;;;;;;5004738;28;19926;-74
2021/03/03 12:44:08;;;;;;;;;;;;;;;;;;4998539;28;19925;-73
2021/03/03 12:46:34;;;;;;;;;;;;;;;;;;5005861;28;20319;-73
2021/03/03 12:49:00;;;;;;;;;;;;;;;;;;4989018;28;19937;-74
2021/03/03 12:51:26;;;;;;;;;;;;;;;;;;4996552;28;19926;-73
2021/03/03 12:53:52;;;;;;;;;;;;;;;;;;4997350;28;19934;-73
2021/03/03 12:56:17;;;;;;;;;;;;;;;;;;5005281;28;19932;-74
2021/03/03 12:58:43;;;;;;;;;;;;;;;;;;4994864;28;19933;-73
2021/03/03 13:01:09;;;;;;;;;;;;;;;;;;5005275;28;19930;-74
2021/03/03 13:03:35;;;;;;;;;;;;;;;;;;5007639;28;19970;-73
2021/03/03 13:06:01;;;;;;;;;;;;;;;;;;4993373;28;19929;-73
2021/03/03 13:08:27;;;;;;;;;;;;;;;;;;5006377;28;19940;-73
2021/03/03 13:10:53;;;;;;;;;;;;;;;;;;4998783;28;19925;-73
2021/03/03 13:13:19;;;;;;;;;;;;;;;;;;5007340;28;19952;-73
2021/03/03 13:15:45;;;;;;;;;;;;;;;;;;5027196;28;19925;-73
2021/03/03 13:18:11;;;;;;;;;;;;;;;;;;5029806;28;19929;-72
2021/03/03 13:20:36;;;;;;;;;;;;;;;;;;5058807;28;19939;-72
2021/03/03 13:23:02;;;;;;;;;;;;;;;;;;5000885;28;19978;-73
2021/03/03 13:25:28;;;;;;;;;;;;;;;;;;4999369;28;19929;-72
2021/03/03 13:27:54;;;;;;;;;;;;;;;;;;4995466;28;19937;-74
2021/03/03 13:30:20;;;;;;;;;;;;;;;;;;5009410;28;19925;-73
2021/03/03 13:32:46;;;;;;;;;;;;;;;;;;5002035;28;19929;-72
2021/03/03 13:35:12;;;;;;;;;;;;;;;;;;5004863;28;19932;-73
2021/03/03 13:37:38;;;;;;;;;;;;;;;;;;5003247;28;19925;-73
2021/03/03 13:40:04;;;;;;;;;;;;;;;;;;5004952;28;20683;-73
2021/03/03 13:42:30;;;;;;;;;;;;;;;;;;5000822;28;19926;-71
2021/03/03 13:44:56;;;;;;;;;;;;;;;;;;4988793;28;19929;-73
2021/03/03 13:47:22;;;;;;;;;;;;;;;;;;5004064;28;20006;-73
2021/03/03 13:49:48;;;;;;;;;;;;;;;;;;5002983;28;20362;-75
2021/03/03 13:52:14;;;;;;;;;;;;;;;;;;4991865;28;19933;-73
2021/03/03 13:54:40;;;;;;;;;;;;;;;;;;4999176;28;20031;-73
2021/03/03 13:57:07;;;;;;;;;;;;;;;;;;4998642;28;19926;-73
2021/03/03 13:59:33;;;;;;;;;;;;;;;;;;5001768;28;19964;-73
2021/03/03 14:01:59;;;;;;;;;;;;;;;;;;4981877;28;19937;-74
2021/03/03 14:04:26;;;;;;;;;;;;;;;;;;5003097;28;19925;-73
2021/03/03 14:06:52;;;;;;;;;;;;;;;;;;5001253;28;20020;-73
2021/03/03 14:09:18;;;;;;;;;;;;;;;;;;4995333;28;20027;-74
2021/03/03 14:11:44;;;;;;;;;;;;;;;;;;4999348;28;19930;-73
2021/03/03 14:14:10;;;;;;;;;;;;;;;;;;5004453;28;19930;-74
2021/03/03 14:16:36;;;;;;;;;;;;;;;;;;4994991;28;19978;-73
2021/03/03 14:19:02;;;;;;;;;;;;;;;;;;5003017;28;19937;-76
2021/03/03 14:21:28;;;;;;;;;;;;;;;;;;5080299;28;19923;-73
2021/03/03 14:23:54;;;;;;;;;;;;;;;;;;5029789;28;19936;-73
2021/03/03 14:26:19;;;;;;;;;;;;;;;;;;4986083;28;19934;-72
2021/03/03 14:28:45;;;;;;;;;;;;;;;;;;5016720;28;20378;-74
2021/03/03 14:31:11;;;;;;;;;;;;;;;;;;4990805;28;19925;-71
2021/03/03 14:33:37;;;;;;;;;;;;;;;;;;4996696;28;19982;-73
2021/03/03 14:36:03;;;;;;;;;;;;;;;;;;5002700;28;20848;-73
2021/03/03 14:38:29;;;;;;;;;;;;;;;;;;5005252;28;19937;-73
2021/03/03 14:40:56;;;;;;;;;;;;;;;;;;4995295;28;19925;-73
2021/03/03 14:43:22;;;;;;;;;;;;;;;;;;5001558;28;19933;-75
2021/03/03 14:45:48;;;;;;;;;;;;;;;;;;5053221;28;19928;-75
2021/03/03 14:48:14;;;;;;;;;;;;;;;;;;5008270;28;19932;-75
2021/03/03 14:50:40;;;;;;;;;;;;;;;;;;5006612;28;19932;-73
2021/03/03 14:53:06;;;;;;;;;;;;;;;;;;5006747;28;20424;-75
2021/03/03 14:55:32;;;;;;;;;;;;;;;;;;4998681;28;19925;-73
2021/03/03 14:57:58;;;;;;;;;;;;;;;;;;5004790;28;19933;-74
2021/03/03 15:00:24;;;;;;;;;;;;;;;;;;5001674;28;19952;-73
2021/03/03 15:02:50;;;;;;;;;;;;;;;;;;4994178;28;19952;-74
2021/03/03 15:05:16;;;;;;;;;;;;;;;;;;4987939;28;19933;-75
2021/03/03 15:07:42;;;;;;;;;;;;;;;;;;4985501;28;19960;-74
2021/03/03 15:10:08;;;;;;;;;;;;;;;;;;4990308;28;19933;-75
2021/03/03 15:12:34;;;;;;;;;;;;;;;;;;5007798;28;19933;-74
2021/03/03 15:15:00;;;;;;;;;;;;;;;;;;5000534;28;19930;-74
2021/03/03 15:17:26;;;;;;;;;;;;;;;;;;5000388;28;20388;-75
2021/03/03 15:19:51;;;;;;;;;;;;;;;;;;5072131;28;19992;-75
2021/03/03 15:22:17;;;;;;;;;;;;;;;;;;5038836;28;19925;-74
2021/03/03 15:24:43;;;;;;;;;;;;;;;;;;4998341;28;20305;-73
2021/03/03 15:27:09;;;;;;;;;;;;;;;;;;4997646;28;20344;-75
2021/03/03 15:29:35;;;;;;;;;;;;;;;;;;4998764;28;19932;-73
2021/03/03 15:32:01;;;;;;;;;;;;;;;;;;4994130;28;19983;-73
2021/03/03 15:34:29;;;;;;;;;;;;;;;;;;4991687;28;19926;-75
2021/03/03 15:36:55;;;;;;;;;;;;;;;;;;5003736;28;19933;-77
2021/03/03 15:39:21;;;;;;;;;;;;;;;;;;5005827;28;19933;-75
2021/03/03 15:41:47;;;;;;;;;;;;;;;;;;4992354;28;20399;-75
2021/03/03 15:44:13;;;;;;;;;;;;;;;;;;5006351;28;20378;-77
2021/03/03 15:46:39;;;;;;;;;;;;;;;;;;5000201;28;19983;-75
2021/03/03 15:49:05;;;;;;;;;;;;;;;;;;4996924;28;20337;-74
2021/03/03 15:51:31;;;;;;;;;;;;;;;;;;5003003;28;19925;-73
2021/03/03 15:53:56;;;;;;;;;;;;;;;;;;5073860;28;19988;-73
2021/03/03 15:56:22;;;;;;;;;;;;;;;;;;5106732;28;19931;-74
2021/03/03 15:58:48;;;;;;;;;;;;;;;;;;4992385;28;19936;-74
2021/03/03 16:01:14;;;;;;;;;;;;;;;;;;5003980;28;19940;-74
2021/03/03 16:03:40;;;;;;;;;;;;;;;;;;4990813;28;19925;-75
2021/03/03 16:06:06;;;;;;;;;;;;;;;;;;4985403;28;20406;-74
2021/03/03 16:08:32;;;;;;;;;;;;;;;;;;4983368;28;19930;-75
2021/03/03 16:10:58;;;;;;;;;;;;;;;;;;5001133;28;19953;-74
2021/03/03 16:13:24;;;;;;;;;;;;;;;;;;4983275;28;19933;-73
2021/03/03 16:15:50;;;;;;;;;;;;;;;;;;4989378;28;20362;-74
2021/03/03 16:18:16;;;;;;;;;;;;;;;;;;4997585;28;19925;-73
2021/03/03 16:20:42;;;;;;;;;;;;;;;;;;4987982;28;20597;-73
2021/03/03 16:23:08;;;;;;;;;;;;;;;;;;5005553;28;19925;-75
2021/03/03 16:25:34;;;;;;;;;;;;;;;;;;5005287;28;20012;-74
2021/03/03 16:28:00;;;;;;;;;;;;;;;;;;5007118;28;20397;-77
2021/03/03 16:30:26;;;;;;;;;;;;;;;;;;5024295;28;20228;-75
2021/03/03 16:32:52;;;;;;;;;;;;;;;;;;5027973;28;20492;-72
2021/03/03 16:35:19;;;;;;;;;;;;;;;;;;4996580;28;19933;-76